Casca, Brazil
Current Conditions -  °F | °C
As of 3:00 PM on Saturday 20 Dec 2014 (Local Time) from SBPF Reporting Station
Broken Clouds Broken Clouds  
Wind Chill: 84°   Ceiling: 5000
Heat Index: 86°   Visibility: 6mi
Dew Point: 64°   Wind: 14mph
Humidity: 51%   Direction: 360°N
Pressure: 29.74"   Gusts: NA
Location:  28.56°S, 51.98°W
Report Text: SBPF 201700Z 36012KT 9999 FEW040 BKN050 29/18 Q1007
Loading
Personal Weather Stations






























Interactive Weather Map New forecast layout! Learn more

10-Day Weather Forecast

Advertisements
Track Severe Weather on mobile